createdAt,value
2018-07-31T00:01:53.842Z,20.60
2018-07-31T00:04:22.348Z,20.60
2018-07-31T00:06:50.895Z,20.60
2018-07-31T00:09:19.323Z,20.60
2018-07-31T00:11:47.739Z,20.50
2018-07-31T00:14:16.217Z,20.50
2018-07-31T00:16:44.704Z,20.40
2018-07-31T00:19:13.189Z,20.40
2018-07-31T00:21:42.215Z,20.40
2018-07-31T00:24:10.702Z,20.40
2018-07-31T00:26:39.229Z,20.30
2018-07-31T00:29:07.900Z,20.30
2018-07-31T00:31:36.382Z,20.30
2018-07-31T00:34:04.976Z,20.30
2018-07-31T00:36:33.564Z,20.20
2018-07-31T00:39:02.034Z,20.20
2018-07-31T00:41:30.629Z,20.20
2018-07-31T00:43:59.776Z,20.20
2018-07-31T00:46:28.300Z,20.20
2018-07-31T00:48:57.154Z,20.10
2018-07-31T00:51:25.584Z,20.10
2018-07-31T00:53:54.085Z,20.10
2018-07-31T00:56:23.142Z,20.10
2018-07-31T00:58:51.566Z,20.10
2018-07-31T01:01:21.313Z,20.10
2018-07-31T01:03:49.746Z,20.10
2018-07-31T01:06:22.517Z,20.20
2018-07-31T01:08:51.825Z,20.20
2018-07-31T01:11:20.276Z,20.30
2018-07-31T01:13:48.861Z,20.30
2018-07-31T01:16:17.409Z,20.30
2018-07-31T01:18:45.885Z,20.30
2018-07-31T01:21:14.304Z,20.30
2018-07-31T01:23:42.806Z,20.20
2018-07-31T01:26:11.227Z,20.20
2018-07-31T01:28:39.647Z,20.20
2018-07-31T01:31:08.284Z,20.20
2018-07-31T01:33:36.802Z,20.20
2018-07-31T01:36:05.264Z,20.10
2018-07-31T01:38:33.770Z,20.10
2018-07-31T01:41:02.258Z,20.10
2018-07-31T01:43:30.678Z,20.10
2018-07-31T01:45:59.305Z,20.10
2018-07-31T01:48:27.847Z,20.00
2018-07-31T01:50:56.439Z,20.10
2018-07-31T01:53:24.968Z,20.10
2018-07-31T01:55:54.136Z,20.10
2018-07-31T01:58:22.606Z,20.10
2018-07-31T02:00:51.099Z,20.10
2018-07-31T02:03:19.661Z,20.10
2018-07-31T02:05:48.886Z,20.10
2018-07-31T02:08:17.409Z,20.00
2018-07-31T02:10:48.298Z,20.00
2018-07-31T02:13:16.895Z,19.90
2018-07-31T02:15:45.772Z,19.90
2018-07-31T02:18:14.310Z,19.90
2018-07-31T02:20:42.901Z,19.90
2018-07-31T02:23:12.352Z,19.90
2018-07-31T02:25:41.642Z,19.80
2018-07-31T02:28:10.162Z,19.90
2018-07-31T02:30:38.603Z,19.90
2018-07-31T02:33:07.152Z,19.90
2018-07-31T02:35:35.645Z,19.90
2018-07-31T02:38:04.061Z,19.90
2018-07-31T02:40:32.492Z,19.90
2018-07-31T02:43:00.964Z,19.90
2018-07-31T02:45:30.686Z,19.90
2018-07-31T02:47:59.210Z,19.90
2018-07-31T02:50:27.645Z,19.80
2018-07-31T02:52:56.156Z,19.80
2018-07-31T02:55:24.615Z,19.80
2018-07-31T02:57:53.021Z,19.80
2018-07-31T03:00:21.469Z,19.80
2018-07-31T03:02:50.016Z,19.80
2018-07-31T03:05:18.489Z,19.80
2018-07-31T03:07:46.962Z,19.80
2018-07-31T03:10:15.442Z,19.80
2018-07-31T03:12:43.908Z,19.80
2018-07-31T03:15:12.503Z,19.80
2018-07-31T03:17:40.960Z,19.70
2018-07-31T03:20:09.704Z,19.70
2018-07-31T03:22:38.161Z,19.70
2018-07-31T03:25:06.630Z,19.70
2018-07-31T03:27:35.181Z,19.70
2018-07-31T03:30:03.721Z,19.70
2018-07-31T03:32:32.128Z,19.70
2018-07-31T03:35:00.636Z,19.80
2018-07-31T03:37:29.228Z,19.80
2018-07-31T03:39:57.729Z,19.80
2018-07-31T03:42:26.184Z,19.80
2018-07-31T03:44:54.686Z,19.90
2018-07-31T03:47:23.226Z,19.80
2018-07-31T03:49:51.729Z,19.80
2018-07-31T03:52:20.949Z,19.80
2018-07-31T03:54:49.500Z,19.80
2018-07-31T03:57:18.551Z,19.80
2018-07-31T03:59:47.012Z,19.90
2018-07-31T04:02:15.479Z,19.80
2018-07-31T04:04:43.922Z,19.80
2018-07-31T04:07:12.385Z,19.70
2018-07-31T04:09:41.462Z,19.70
2018-07-31T04:12:09.914Z,19.60
2018-07-31T04:14:38.391Z,19.60
2018-07-31T04:17:06.907Z,19.60
2018-07-31T04:19:35.337Z,19.60
2018-07-31T04:22:03.763Z,19.60
2018-07-31T04:24:32.227Z,19.60
2018-07-31T04:27:00.649Z,19.60
2018-07-31T04:29:29.183Z,19.60
2018-07-31T04:31:57.661Z,19.60
2018-07-31T04:34:26.088Z,19.60
2018-07-31T04:36:54.619Z,19.60
2018-07-31T04:39:23.183Z,19.60
2018-07-31T04:41:51.654Z,19.60
2018-07-31T04:44:20.123Z,19.70
2018-07-31T04:46:48.632Z,19.80
2018-07-31T04:49:17.060Z,19.80
2018-07-31T04:51:46.776Z,19.80
2018-07-31T04:54:15.236Z,19.80
2018-07-31T04:56:43.686Z,19.80
2018-07-31T04:59:12.277Z,19.80
2018-07-31T05:01:40.753Z,19.80
2018-07-31T05:04:09.169Z,19.80
2018-07-31T05:06:37.610Z,19.80
2018-07-31T05:09:08.597Z,19.80
2018-07-31T05:11:37.218Z,19.90
2018-07-31T05:14:06.447Z,19.90
2018-07-31T05:16:34.968Z,20.00
2018-07-31T05:19:03.856Z,20.00
2018-07-31T05:21:32.443Z,20.10
2018-07-31T05:24:00.961Z,20.10
2018-07-31T05:28:58.283Z,20.30
2018-07-31T05:31:26.764Z,20.30
2018-07-31T05:33:55.375Z,20.30
2018-07-31T05:36:23.813Z,20.30
2018-07-31T05:38:52.337Z,20.40
2018-07-31T05:41:20.789Z,20.60
2018-07-31T05:43:49.232Z,20.80
2018-07-31T05:46:17.686Z,20.80
2018-07-31T05:48:46.101Z,20.90
2018-07-31T05:51:14.516Z,21.00
2018-07-31T05:53:42.963Z,21.00
2018-07-31T05:56:11.389Z,21.10
2018-07-31T05:58:39.815Z,21.00
2018-07-31T06:01:08.260Z,21.10
2018-07-31T06:03:36.748Z,21.00
2018-07-31T06:06:05.350Z,21.00
2018-07-31T06:08:33.901Z,21.00
2018-07-31T06:11:02.312Z,21.00
2018-07-31T06:13:30.807Z,21.00
2018-07-31T06:15:59.880Z,21.00
2018-07-31T06:18:28.318Z,21.10
2018-07-31T06:20:56.802Z,21.20
2018-07-31T06:23:25.272Z,21.10
2018-07-31T06:25:53.714Z,21.20
2018-07-31T06:28:22.201Z,21.20
2018-07-31T06:30:50.743Z,21.30
2018-07-31T06:33:19.265Z,21.10
2018-07-31T06:35:47.715Z,21.00
2018-07-31T06:38:16.221Z,21.00
2018-07-31T06:40:44.936Z,21.10
2018-07-31T06:43:13.851Z,21.30
2018-07-31T06:45:42.552Z,21.50
2018-07-31T06:48:11.032Z,21.60
2018-07-31T06:50:39.462Z,21.50
2018-07-31T06:53:07.984Z,21.60
2018-07-31T06:58:04.675Z,21.70
2018-07-31T07:00:33.223Z,21.80
2018-07-31T07:03:01.969Z,21.90
2018-07-31T20:34:49.740Z,24.30
2018-07-31T20:42:29.048Z,26.80
2018-07-31T20:44:57.625Z,26.10
2018-07-31T20:47:26.099Z,25.40
2018-07-31T20:49:54.639Z,25.00
2018-07-31T20:52:23.154Z,24.70
2018-07-31T20:54:51.664Z,24.40
2018-07-31T20:57:20.178Z,24.30
2018-07-31T20:59:48.715Z,24.20
2018-07-31T21:02:17.222Z,24.10
2018-07-31T21:04:45.693Z,24.00
2018-07-31T21:07:14.211Z,23.90
2018-07-31T21:09:43.274Z,23.90
2018-07-31T21:12:12.266Z,23.80
2018-07-31T21:17:09.584Z,23.70
2018-07-31T21:19:38.057Z,23.70
2018-07-31T21:22:06.606Z,23.70
2018-07-31T21:24:35.121Z,23.60
2018-07-31T21:27:03.588Z,23.60
2018-07-31T21:29:32.118Z,23.60
2018-07-31T21:32:00.638Z,23.50
2018-07-31T21:34:29.218Z,23.50
2018-07-31T21:36:58.051Z,23.50
2018-07-31T21:39:26.580Z,23.40
2018-07-31T21:41:55.719Z,23.40
2018-07-31T21:44:24.207Z,23.30
2018-07-31T21:46:53.364Z,23.30
2018-07-31T21:49:21.823Z,23.30
2018-07-31T21:51:50.297Z,23.30
2018-07-31T21:54:19.927Z,23.20
2018-07-31T21:56:48.352Z,23.20
2018-07-31T21:59:16.872Z,23.20
2018-07-31T22:01:45.307Z,23.10
2018-07-31T22:04:13.827Z,23.10
2018-07-31T22:06:42.276Z,23.10
2018-07-31T22:09:11.159Z,23.00
2018-07-31T22:11:39.639Z,23.00
2018-07-31T22:14:08.226Z,22.90
2018-07-31T22:16:36.688Z,22.90
2018-07-31T22:19:05.231Z,22.90
2018-07-31T22:21:33.731Z,22.80
2018-07-31T22:24:02.156Z,22.80
2018-07-31T22:26:30.730Z,22.80
2018-07-31T22:28:59.219Z,22.70
2018-07-31T22:31:27.700Z,22.70
2018-07-31T22:33:56.253Z,22.70
2018-07-31T22:36:24.779Z,22.60
2018-07-31T22:38:53.298Z,22.50
2018-07-31T22:41:22.469Z,22.50
2018-07-31T22:43:50.918Z,22.50
2018-07-31T22:46:19.498Z,22.50
2018-07-31T22:48:47.919Z,22.40
2018-07-31T22:51:16.395Z,22.40
2018-07-31T22:53:45.204Z,22.40
2018-07-31T22:56:13.733Z,22.30
2018-07-31T22:58:42.189Z,22.30
2018-07-31T23:01:11.452Z,22.20
2018-07-31T23:03:39.957Z,22.20
2018-07-31T23:06:08.490Z,22.20
2018-07-31T23:08:37.025Z,22.20
2018-07-31T23:11:05.484Z,22.10
2018-07-31T23:13:33.941Z,22.10
2018-07-31T23:16:02.454Z,22.00
2018-07-31T23:18:30.912Z,22.00
2018-07-31T23:20:59.429Z,21.90
2018-07-31T23:23:27.864Z,21.90
2018-07-31T23:25:56.385Z,21.90
2018-07-31T23:28:24.820Z,21.90
2018-07-31T23:30:53.347Z,21.80
2018-07-31T23:35:50.034Z,21.80
2018-07-31T23:38:18.509Z,21.80
2018-07-31T23:40:47.034Z,21.70
2018-07-31T23:43:15.506Z,21.60
2018-07-31T23:45:43.999Z,21.70
2018-07-31T23:48:12.442Z,21.60
2018-07-31T23:50:40.930Z,21.60
2018-07-31T23:53:09.370Z,21.50
2018-07-31T23:55:37.841Z,21.50
2018-07-31T23:58:06.260Z,21.50
